Time;durP1;ratioP1;P1;durP2;ratioP2;P2;SDS_P1;SDS_P2;PMS_P1;PMS_P2;Temp;Humidity;BMP_temperature;BMP_pressure;BME280_temperature;BME280_humidity;BME280_pressure;Samples;Min_cycle;Max_cycle;Signal;HPM_P1;HPM_P2
2022/10/28 00:03:26;;;;;;;279.23;24.38;;;;;;;12.41;71.16;100506.53;10277694;28;20062;-80
2022/10/28 00:08:28;;;;;;;359.25;28.80;;;;;;;12.35;70.93;100506.88;10278654;28;20531;-81
2022/10/28 00:13:29;;;;;;;229.20;12.73;;;;;;;12.23;71.26;100502.31;10276448;28;20065;-81
2022/10/28 00:18:31;;;;;;;129.07;10.18;;;;;;;12.31;71.34;100504.53;10276307;28;20567;-81
2022/10/28 00:23:33;;;;;;;81.50;12.63;;;;;;;12.30;71.32;100497.56;10274697;28;20051;-81
2022/10/28 00:28:39;;;;;;;90.55;14.98;;;;;;;12.39;71.27;100491.81;10275865;28;20082;-81
2022/10/28 00:33:41;;;;;;;36.70;13.13;;;;;;;12.40;71.09;100488.22;10276361;28;20057;-81
2022/10/28 00:38:45;;;;;;;15.45;8.55;;;;;;;12.51;70.89;100489.31;10276520;28;20065;-82
2022/10/28 00:43:53;;;;;;;49.58;13.98;;;;;;;12.50;70.71;100487.59;10276356;28;20047;-82
2022/10/28 00:49:01;;;;;;;541.30;26.48;;;;;;;12.35;70.79;100487.69;10275470;28;20424;-82
2022/10/28 00:54:04;;;;;;;45.80;7.63;;;;;;;12.27;71.18;100485.47;10274881;28;20456;-83
2022/10/28 00:59:15;;;;;;;10.80;7.35;;;;;;;12.31;71.46;100487.00;10276395;28;20053;-82
2022/10/28 01:04:17;;;;;;;14.77;7.55;;;;;;;12.35;70.97;100466.69;10274628;28;20141;-82
2022/10/28 01:09:19;;;;;;;13.30;8.00;;;;;;;12.36;70.91;100468.38;10274314;28;20057;-82
2022/10/28 01:14:38;;;;;;;16.15;9.20;;;;;;;12.19;71.17;100468.47;10274122;28;20102;-82
2022/10/28 01:20:17;;;;;;;112.57;10.77;;;;;;;12.20;71.21;100464.91;10288463;28;20516;-82
2022/10/28 01:25:58;;;;;;;14.40;10.20;;;;;;;12.27;71.21;100464.50;10273333;28;20054;-82
2022/10/28 01:31:57;;;;;;;17.40;8.68;;;;;;;12.43;70.96;100461.84;10270361;28;20050;-82
2022/10/28 01:37:24;;;;;;;19.27;10.55;;;;;;;12.50;70.54;100460.53;10268997;28;20066;-82
2022/10/28 01:42:53;;;;;;;219.15;20.83;;;;;;;12.43;70.26;100452.19;10273745;28;20057;-82
2022/10/28 01:48:09;;;;;;;26.88;12.30;;;;;;;12.42;70.67;100454.88;10274123;28;20053;-82
2022/10/28 01:53:15;;;;;;;21.35;11.52;;;;;;;12.49;70.50;100441.34;10276787;28;20057;-82
2022/10/28 01:58:22;;;;;;;14.02;7.97;;;;;;;12.47;70.50;100432.72;10284473;28;20465;-82
2022/10/28 02:03:24;;;;;;;18.77;8.50;;;;;;;12.55;70.82;100430.47;10281324;28;20055;-82
2022/10/28 02:08:43;;;;;;;18.73;9.93;;;;;;;12.61;70.63;100424.84;10277356;28;20051;-82
2022/10/28 02:13:56;;;;;;;19.17;8.75;;;;;;;12.68;70.69;100428.78;10277749;28;20401;-82
2022/10/28 02:19:10;;;;;;;17.58;9.07;;;;;;;12.72;70.70;100424.22;10279397;28;20169;-82
2022/10/28 02:24:20;;;;;;;17.55;8.45;;;;;;;12.78;70.71;100410.72;10280057;28;20051;-82
2022/10/28 02:29:40;;;;;;;17.90;9.20;;;;;;;12.80;70.39;100419.34;10277268;28;20375;-82
2022/10/28 02:34:47;;;;;;;18.83;9.93;;;;;;;12.88;70.60;100412.66;10277247;28;20054;-82
2022/10/28 02:39:53;;;;;;;22.92;12.52;;;;;;;12.90;70.26;100404.72;10292626;28;20412;-82
2022/10/28 02:45:00;;;;;;;20.75;10.98;;;;;;;12.90;70.58;100404.72;10274200;28;20053;-82
2022/10/28 02:50:07;;;;;;;17.20;10.85;;;;;;;12.93;70.66;100402.72;10275861;28;20062;-82
2022/10/28 02:55:09;;;;;;;20.77;12.20;;;;;;;12.96;70.72;100391.22;10276722;28;20065;-82
2022/10/28 03:00:16;;;;;;;19.25;9.95;;;;;;;12.92;70.65;100400.22;10276347;28;20053;-82
2022/10/28 03:05:19;;;;;;;21.27;8.27;;;;;;;12.91;70.55;100385.38;10272912;28;20167;-82
2022/10/28 03:10:21;;;;;;;17.70;11.32;;;;;;;12.90;70.58;100387.16;10274699;28;20086;-82
2022/10/28 03:15:22;;;;;;;15.77;8.30;;;;;;;12.92;70.55;100381.84;10276146;28;20050;-82
2022/10/28 03:20:24;;;;;;;18.75;10.27;;;;;;;12.83;70.70;100383.25;10278968;28;20047;-82
2022/10/28 03:25:26;;;;;;;26.63;11.70;;;;;;;12.83;70.70;100385.00;10278010;28;20050;-82
2022/10/28 03:30:27;;;;;;;27.05;13.63;;;;;;;12.90;70.78;100388.97;10275787;28;20058;-82
2022/10/28 03:35:29;;;;;;;22.45;12.32;;;;;;;12.93;70.59;100400.09;10276537;28;20524;-83
2022/10/28 03:40:31;;;;;;;15.05;9.07;;;;;;;12.82;70.58;100397.28;10279017;28;20088;-82
2022/10/28 03:45:33;;;;;;;11.07;7.45;;;;;;;12.72;70.39;100390.91;10277091;28;20055;-82
2022/10/28 03:50:34;;;;;;;18.80;11.43;;;;;;;12.73;70.44;100383.91;10278572;28;20057;-82
2022/10/28 03:55:36;;;;;;;21.15;10.20;;;;;;;12.75;70.90;100388.13;10275959;28;20061;-82
2022/10/28 04:00:38;;;;;;;16.38;8.70;;;;;;;12.73;70.70;100391.78;10275390;28;20061;-82
2022/10/28 04:05:39;;;;;;;20.08;9.80;;;;;;;12.73;70.66;100397.03;10276561;28;20058;-83
2022/10/28 04:10:42;;;;;;;19.40;10.40;;;;;;;12.71;70.54;100391.88;10275602;28;20062;-82
2022/10/28 04:15:47;;;;;;;23.52;9.82;;;;;;;12.60;70.98;100396.91;10274641;28;20051;-82
2022/10/28 04:20:50;;;;;;;23.73;11.00;;;;;;;12.68;70.90;100385.97;10275870;28;20057;-82
2022/10/28 04:25:53;;;;;;;28.88;12.90;;;;;;;12.73;70.83;100376.88;10273529;28;20421;-83
2022/10/28 04:30:55;;;;;;;16.30;8.07;;;;;;;12.73;70.88;100376.88;10273821;28;20058;-82
2022/10/28 04:35:57;;;;;;;25.42;10.50;;;;;;;12.70;70.86;100360.47;10274934;28;20058;-82
2022/10/28 04:40:58;;;;;;;18.67;8.77;;;;;;;12.63;70.79;100356.53;10274120;28;20413;-82
2022/10/28 04:46:04;;;;;;;30.48;14.40;;;;;;;12.46;70.79;100356.72;10273774;28;20051;-82
2022/10/28 04:51:06;;;;;;;33.15;15.95;;;;;;;12.31;71.34;100352.41;10276242;28;20142;-82
2022/10/28 04:56:08;;;;;;;23.38;11.90;;;;;;;12.24;71.04;100346.66;10275237;28;20055;-82
2022/10/28 05:01:10;;;;;;;41.45;16.40;;;;;;;12.24;71.51;100348.41;10276348;28;20058;-82
2022/10/28 05:06:12;;;;;;;25.25;9.85;;;;;;;12.17;71.28;100342.72;10275402;28;20065;-82
2022/10/28 05:11:14;;;;;;;22.88;10.50;;;;;;;12.10;71.27;100341.38;10272673;28;20492;-83
2022/10/28 05:16:15;;;;;;;19.52;9.60;;;;;;;12.02;71.27;100335.75;10272902;28;20058;-82
2022/10/28 05:21:17;;;;;;;20.48;11.00;;;;;;;11.96;71.51;100342.22;10273033;28;20058;-82
2022/10/28 05:26:18;;;;;;;20.08;10.57;;;;;;;11.84;71.26;100337.69;10273562;28;20709;-82
2022/10/28 05:31:20;;;;;;;36.22;18.23;;;;;;;11.78;71.85;100334.56;10272496;28;20051;-82
2022/10/28 05:36:22;;;;;;;20.13;10.38;;;;;;;11.70;71.76;100327.13;10272658;28;20527;-82
2022/10/28 05:41:24;;;;;;;259.25;22.83;;;;;;;11.69;71.81;100327.22;10275626;28;20051;-82
2022/10/28 05:46:25;;;;;;;22.92;10.48;;;;;;;11.67;71.51;100339.59;10274729;28;20057;-82
2022/10/28 05:51:27;;;;;;;15.93;7.75;;;;;;;11.64;71.80;100350.25;10274192;28;20058;-82
2022/10/28 05:56:29;;;;;;;20.42;10.95;;;;;;;11.59;71.69;100350.50;10275388;28;20043;-82
2022/10/28 06:01:30;;;;;;;14.77;9.25;;;;;;;11.59;71.67;100341.78;10274790;28;20059;-82
2022/10/28 06:06:32;;;;;;;18.75;8.90;;;;;;;11.60;71.75;100354.81;10273310;28;20054;-82
2022/10/28 06:11:34;;;;;;;19.13;11.48;;;;;;;11.64;71.65;100361.56;10272620;28;20047;-82
2022/10/28 06:16:37;;;;;;;25.27;14.23;;;;;;;11.72;71.68;100369.00;10271431;28;20066;-81
2022/10/28 06:21:39;;;;;;;26.50;12.70;;;;;;;11.84;71.30;100373.53;10271908;28;20424;-82
2022/10/28 06:26:42;;;;;;;124.50;17.65;;;;;;;11.96;71.14;100378.06;10271638;28;20093;-82
2022/10/28 06:31:43;;;;;;;173.38;15.38;;;;;;;12.04;70.71;100376.69;10270576;28;20055;-82
2022/10/28 06:36:45;;;;;;;27.17;9.65;;;;;;;12.17;70.59;100378.56;10270570;28;20439;-82
2022/10/28 06:41:47;;;;;;;31.80;15.48;;;;;;;12.24;70.27;100380.75;10270561;28;20062;-82
2022/10/28 06:46:48;;;;;;;22.00;12.25;;;;;;;12.35;70.32;100388.00;10270713;28;20077;-82
2022/10/28 06:51:50;;;;;;;19.17;9.85;;;;;;;12.36;70.36;100371.31;10277108;28;20058;-82
2022/10/28 06:56:52;;;;;;;21.42;7.78;;;;;;;12.34;70.54;100381.91;10278311;28;20062;-82
2022/10/28 07:01:53;;;;;;;21.88;11.55;;;;;;;12.42;70.40;100402.44;10279303;28;20058;-83
2022/10/28 07:06:56;;;;;;;19.65;9.15;;;;;;;12.53;70.18;100405.25;10278393;28;20051;-83
2022/10/28 07:11:58;;;;;;;19.30;10.00;;;;;;;12.54;69.96;100393.81;10277625;28;20162;-82
2022/10/28 07:17:05;;;;;;;18.98;10.23;;;;;;;12.42;70.22;100387.53;10278394;28;20046;-82
2022/10/28 07:22:07;;;;;;;12.32;7.85;;;;;;;12.52;70.44;100387.81;10281200;28;20061;-83
2022/10/28 07:27:08;;;;;;;21.45;9.98;;;;;;;12.54;70.80;100394.66;10296183;28;20046;-82
2022/10/28 07:32:10;;;;;;;13.52;8.45;;;;;;;12.67;70.36;100405.25;10276847;28;20058;-81
2022/10/28 07:37:12;;;;;;;19.63;9.18;;;;;;;12.88;70.03;100407.41;10278462;28;20416;-82
2022/10/28 07:42:27;;;;;;;20.40;13.00;;;;;;;13.00;69.76;100399.72;10274972;28;21008;-81
2022/10/28 07:47:30;;;;;;;22.17;12.20;;;;;;;13.20;69.37;100409.81;10277315;28;20055;-81
2022/10/28 07:52:32;;;;;;;11.63;7.38;;;;;;;13.22;69.06;100421.94;10275113;28;20055;-82
2022/10/28 07:57:36;;;;;;;14.32;8.95;;;;;;;13.28;68.93;100402.31;10273209;28;20051;-82
2022/10/28 08:02:38;;;;;;;16.13;9.18;;;;;;;13.35;69.05;100406.25;10272745;28;20062;-82
2022/10/28 08:07:39;;;;;;;13.85;8.40;;;;;;;13.44;69.07;100411.78;10274763;28;20505;-82
2022/10/28 08:12:48;;;;;;;14.40;9.48;;;;;;;13.47;69.21;100419.47;10271934;28;20057;-82
2022/10/28 08:17:56;;;;;;;15.48;8.02;;;;;;;13.56;68.96;100416.25;10274016;28;20142;-82
2022/10/28 08:23:04;;;;;;;16.92;10.13;;;;;;;13.67;68.79;100413.78;10273521;28;20382;-82
2022/10/28 08:28:09;;;;;;;17.98;10.85;;;;;;;13.76;68.59;100412.31;10275029;28;21115;-83
2022/10/28 08:33:11;;;;;;;19.15;9.23;;;;;;;13.77;68.51;100414.88;10274058;28;20046;-82
2022/10/28 08:38:13;;;;;;;13.70;6.80;;;;;;;13.93;68.50;100412.06;10272792;28;20054;-82
2022/10/28 08:43:31;;;;;;;15.93;7.47;;;;;;;14.16;67.97;100411.41;10271802;28;20058;-82
2022/10/28 08:48:55;;;;;;;16.73;7.70;;;;;;;14.41;68.24;100411.41;10271913;28;20507;-82
2022/10/28 08:54:05;;;;;;;16.65;8.95;;;;;;;14.66;67.86;100415.03;10269249;28;20055;-82
2022/10/28 08:59:20;;;;;;;23.58;7.97;;;;;;;14.92;67.64;100406.19;10273245;28;20058;-81
2022/10/28 09:04:41;;;;;;;12.80;6.85;;;;;;;15.26;66.80;100400.19;10266606;28;20059;-82
2022/10/28 09:09:50;;;;;;;16.50;7.28;;;;;;;15.54;67.35;100402.56;10272600;28;20055;-81
2022/10/28 09:15:17;;;;;;;17.50;7.68;;;;;;;15.76;66.66;100400.03;10267760;28;20113;-82
2022/10/28 09:20:26;;;;;;;12.68;6.63;;;;;;;16.06;66.66;100403.03;10287870;28;20103;-82
2022/10/28 09:25:41;;;;;;;13.98;6.40;;;;;;;16.34;66.65;100393.03;10285369;28;20053;-82
2022/10/28 09:31:23;;;;;;;13.40;7.20;;;;;;;16.48;65.49;100390.22;10273452;28;20064;-81
2022/10/28 09:36:36;;;;;;;10.70;6.22;;;;;;;16.51;66.14;100380.25;10285591;28;20055;-82
2022/10/28 09:41:47;;;;;;;18.17;6.57;;;;;;;16.69;66.02;100375.34;10266241;28;20061;-82
2022/10/28 09:46:55;;;;;;;13.73;6.03;;;;;;;16.94;65.69;100383.00;10286520;28;20046;-82
2022/10/28 09:52:07;;;;;;;12.50;6.28;;;;;;;17.15;65.40;100385.75;10270053;28;20496;-82
2022/10/28 09:57:09;;;;;;;15.63;6.68;;;;;;;17.52;65.08;100393.31;10271716;28;20090;-82
2022/10/28 10:02:29;;;;;;;15.18;6.30;;;;;;;17.72;64.22;100389.88;10267381;28;20069;-82
2022/10/28 10:07:38;;;;;;;17.77;5.90;;;;;;;17.83;63.73;100392.47;10267900;28;20042;-81
2022/10/28 10:12:41;;;;;;;15.13;6.00;;;;;;;17.98;63.91;100393.00;10267619;28;20157;-82
2022/10/28 10:17:50;;;;;;;17.92;6.13;;;;;;;18.11;63.08;100388.38;10264740;28;20516;-82
2022/10/28 10:22:53;;;;;;;16.80;5.82;;;;;;;18.48;62.45;100379.00;10282642;28;20057;-82
2022/10/28 10:28:02;;;;;;;14.93;5.18;;;;;;;18.87;60.11;100373.91;10276491;28;20586;-81
2022/10/28 10:33:06;;;;;;;16.58;4.68;;;;;;;19.00;57.72;100367.41;10272735;28;20408;-82
2022/10/28 10:38:15;;;;;;;21.08;5.13;;;;;;;19.07;57.33;100367.75;10275165;28;20043;-82
2022/10/28 10:49:14;;;;;;;19.23;6.28;;;;;;;19.26;58.34;100359.81;10272553;28;20074;-82
2022/10/28 10:54:19;;;;;;;15.57;5.25;;;;;;;19.36;57.64;100353.56;10289651;28;20054;-82
2022/10/28 10:59:30;;;;;;;15.75;4.70;;;;;;;19.42;57.14;100349.50;10275915;28;20141;-82
2022/10/28 11:04:35;;;;;;;15.80;5.22;;;;;;;19.51;57.26;100343.41;10271200;28;20054;-83
2022/10/28 11:09:41;;;;;;;14.02;4.95;;;;;;;19.66;57.13;100341.16;10273648;28;20081;-82
2022/10/28 11:15:17;;;;;;;14.77;5.10;;;;;;;19.89;57.60;100334.63;10268164;28;20047;-82
2022/10/28 11:20:52;;;;;;;15.52;5.45;;;;;;;19.90;56.57;100323.88;10268607;28;20062;-82
2022/10/28 11:26:13;;;;;;;13.50;4.88;;;;;;;19.93;56.61;100312.16;10261954;28;20420;-82
2022/10/28 11:31:22;;;;;;;;;;;;;;;19.85;56.62;100306.69;10268455;28;20499;-82
2022/10/28 11:36:39;;;;;;;14.40;4.90;;;;;;;20.26;56.49;100303.66;10290042;28;19937;-82
2022/10/28 11:42:12;;;;;;;15.90;5.00;;;;;;;20.47;54.84;100293.69;10273445;28;20063;-81
2022/10/28 11:47:28;;;;;;;16.42;4.47;;;;;;;20.64;54.58;100292.09;10274707;28;20063;-81
2022/10/28 11:52:48;;;;;;;14.77;4.15;;;;;;;20.66;53.15;100285.63;10269340;28;20051;-82
2022/10/28 11:58:17;;;;;;;14.25;3.78;;;;;;;20.71;52.07;100282.53;10288468;28;20053;-82
2022/10/28 12:03:52;;;;;;;18.25;4.10;;;;;;;20.85;52.77;100274.06;10285364;28;20377;-81
2022/10/28 12:09:42;;;;;;;14.55;4.10;;;;;;;20.84;52.48;100267.09;10274296;28;20058;-82
2022/10/28 12:15:11;;;;;;;18.00;4.05;;;;;;;20.91;52.37;100254.84;10270761;28;20089;-82
2022/10/28 12:20:24;;;;;;;16.33;4.45;;;;;;;20.91;54.67;100257.53;10290237;28;20055;-82
2022/10/28 12:25:31;;;;;;;12.93;4.80;;;;;;;20.94;55.30;100242.13;10287529;28;20061;-82
2022/10/28 12:30:42;;;;;;;11.80;4.50;;;;;;;21.03;54.54;100241.19;10273257;28;20057;-82
2022/10/28 12:36:28;;;;;;;12.02;4.15;;;;;;;21.08;54.75;100233.63;10272887;28;20058;-82
2022/10/28 12:42:24;;;;;;;17.75;4.80;;;;;;;21.21;54.63;100221.78;10249731;28;20059;-82
2022/10/28 12:47:30;;;;;;;21.45;4.75;;;;;;;21.25;55.62;100244.41;10239866;28;20106;-82
2022/10/28 12:52:45;;;;;;;11.35;4.38;;;;;;;21.28;55.77;100244.09;10282415;28;20054;-82
2022/10/28 12:58:13;;;;;;;12.07;4.38;;;;;;;21.38;54.32;100236.91;10273207;28;20061;-82
2022/10/28 13:03:17;;;;;;;18.75;4.40;;;;;;;21.63;53.77;100230.81;10268255;28;21023;-82
2022/10/28 13:08:49;;;;;;;18.20;4.82;;;;;;;21.99;52.02;100231.53;10272402;28;20504;-81
2022/10/28 13:14:00;;;;;;;20.13;4.90;;;;;;;22.25;52.07;100241.22;10251670;28;20123;-81
2022/10/28 13:19:25;;;;;;;12.10;4.35;;;;;;;22.46;51.50;100240.81;10270948;28;20058;-81
2022/10/28 13:24:47;;;;;;;21.40;4.78;;;;;;;22.51;50.53;100236.69;10268048;28;20860;-81
2022/10/28 13:29:58;;;;;;;15.60;4.03;;;;;;;22.35;49.02;100230.44;10287086;28;20058;-81
2022/10/28 13:35:11;;;;;;;18.45;4.25;;;;;;;22.28;49.16;100224.91;10268442;28;20062;-81
2022/10/28 13:40:34;;;;;;;15.10;4.32;;;;;;;22.25;49.93;100217.22;10265118;28;21328;-81
2022/10/28 13:45:54;;;;;;;22.95;4.50;;;;;;;22.48;49.03;100225.50;10268598;28;20489;-81
2022/10/28 13:51:10;;;;;;;18.92;4.45;;;;;;;22.50;48.89;100218.19;10269256;28;20140;-81
2022/10/28 13:56:15;;;;;;;16.05;4.35;;;;;;;22.60;48.72;100219.72;10272251;28;20050;-82
2022/10/28 14:01:36;;;;;;;18.55;4.55;;;;;;;22.65;49.97;100222.75;10283364;28;20059;-81
2022/10/28 14:06:39;;;;;;;14.52;4.07;;;;;;;22.69;50.17;100228.59;10272834;28;20049;-81
2022/10/28 14:11:46;;;;;;;19.33;4.35;;;;;;;22.59;50.38;100218.06;10267535;28;20089;-81
2022/10/28 14:16:55;;;;;;;18.02;4.30;;;;;;;22.40;51.50;100217.47;10268316;28;20054;-81
2022/10/28 14:22:07;;;;;;;14.40;4.72;;;;;;;22.09;52.54;100222.47;10264194;28;20862;-83
2022/10/28 14:27:14;;;;;;;16.52;4.45;;;;;;;21.80;53.36;100228.09;10269429;28;20050;-83
2022/10/28 14:32:31;;;;;;;13.63;4.45;;;;;;;21.43;54.38;100234.63;10266598;28;20058;-83
2022/10/28 14:37:55;;;;;;;17.35;4.45;;;;;;;21.15;55.36;100246.31;10285667;28;20051;-83
2022/10/28 14:43:37;;;;;;;15.63;4.15;;;;;;;20.98;55.02;100247.97;10283049;28;20925;-83
2022/10/28 14:48:47;;;;;;;14.40;4.07;;;;;;;20.88;54.08;100261.34;10269482;28;20053;-83
2022/10/28 14:53:56;;;;;;;14.40;4.38;;;;;;;20.78;54.49;100263.22;10283964;28;20054;-83
2022/10/28 14:59:35;;;;;;;14.87;3.80;;;;;;;20.51;54.63;100259.66;10271322;28;20209;-83
2022/10/28 15:04:39;;;;;;;17.98;4.18;;;;;;;20.40;54.80;100262.53;10267330;28;20055;-83
2022/10/28 15:09:44;;;;;;;21.65;4.97;;;;;;;20.23;54.56;100261.47;10271247;28;20059;-82
2022/10/28 15:14:52;;;;;;;10.82;3.50;;;;;;;20.08;53.92;100273.53;10269824;28;20058;-82
2022/10/28 15:19:59;;;;;;;15.63;3.83;;;;;;;20.07;53.42;100280.66;10268611;28;20054;-82
2022/10/28 15:25:01;;;;;;;20.05;4.15;;;;;;;19.96;54.03;100269.38;10267307;28;20047;-82
2022/10/28 15:30:22;;;;;;;20.63;4.13;;;;;;;19.85;54.65;100280.13;10288842;28;20054;-81
2022/10/28 15:35:45;;;;;;;18.05;4.75;;;;;;;19.57;55.02;100259.75;10269638;28;20055;-80
2022/10/28 15:40:49;;;;;;;13.80;3.97;;;;;;;19.62;54.76;100260.19;10271978;28;20493;-81
2022/10/28 15:45:51;;;;;;;16.80;3.55;;;;;;;19.42;55.27;100265.47;10268562;28;21014;-81
2022/10/28 15:51:16;;;;;;;14.05;4.25;;;;;;;19.13;55.68;100277.06;10267672;28;20053;-80
2022/10/28 15:56:29;;;;;;;16.83;4.97;;;;;;;18.88;57.09;100281.03;10266214;28;20071;-82
2022/10/28 16:01:33;;;;;;;14.65;5.05;;;;;;;18.60;59.20;100276.47;10266159;28;21226;-81
2022/10/28 16:06:37;;;;;;;14.90;5.20;;;;;;;18.38;59.42;100281.97;10284126;28;20050;-80
2022/10/28 16:11:42;;;;;;;16.83;5.22;;;;;;;18.24;59.51;100283.13;10262462;28;20055;-82
2022/10/28 16:16:46;;;;;;;19.15;5.30;;;;;;;18.11;59.92;100284.28;10271312;28;20066;-81
2022/10/28 16:21:48;;;;;;;18.98;4.90;;;;;;;17.89;60.20;100282.66;10268500;28;20420;-80
2022/10/28 16:27:14;;;;;;;18.00;5.05;;;;;;;17.74;60.84;100292.69;10270541;28;20509;-80
2022/10/28 16:32:27;;;;;;;17.35;4.80;;;;;;;17.56;61.40;100296.88;10265122;28;20077;-80
2022/10/28 16:37:33;;;;;;;19.92;5.13;;;;;;;17.44;61.80;100307.63;10271038;28;20058;-79
2022/10/28 16:42:39;;;;;;;14.48;4.90;;;;;;;17.27;62.38;100322.19;10267002;28;20065;-80
2022/10/28 16:47:41;;;;;;;23.10;5.03;;;;;;;17.14;62.32;100340.00;10271625;28;20579;-80
2022/10/28 16:52:45;;;;;;;19.55;5.60;;;;;;;16.95;63.38;100345.94;10266008;28;20068;-80
2022/10/28 16:57:48;;;;;;;15.32;5.88;;;;;;;16.87;63.38;100337.75;10269779;28;20607;-81
2022/10/28 17:02:52;;;;;;;18.42;5.32;;;;;;;16.75;63.98;100344.00;10262457;28;20059;-80
2022/10/28 17:07:56;;;;;;;19.42;6.20;;;;;;;16.70;63.99;100345.31;10271073;28;20050;-80
2022/10/28 17:12:58;;;;;;;27.40;6.28;;;;;;;16.56;64.64;100349.06;10267356;28;20051;-81
2022/10/28 17:18:03;;;;;;;19.48;5.85;;;;;;;16.50;64.89;100359.25;10270901;28;20057;-81
2022/10/28 17:23:06;;;;;;;22.17;6.45;;;;;;;16.32;65.13;100358.84;10265520;28;20635;-80
2022/10/28 17:28:10;;;;;;;18.92;6.80;;;;;;;16.19;65.45;100366.84;10268827;28;20047;-81
2022/10/28 17:33:12;;;;;;;18.63;7.03;;;;;;;16.08;65.61;100382.63;10272637;28;20819;-80
2022/10/28 17:38:14;;;;;;;20.58;5.65;;;;;;;15.97;66.25;100387.91;10271808;28;20051;-81
2022/10/28 17:43:15;;;;;;;20.48;6.35;;;;;;;15.85;66.65;100383.53;10272873;28;20065;-80
2022/10/28 17:48:17;;;;;;;29.25;6.50;;;;;;;15.86;66.31;100395.75;10271019;28;20050;-80
2022/10/28 17:53:19;;;;;;;19.58;6.53;;;;;;;15.85;66.42;100396.72;10271444;28;20065;-80
2022/10/28 17:58:20;;;;;;;18.27;7.22;;;;;;;15.75;66.49;100393.09;10271902;28;20516;-80
2022/10/28 18:03:22;;;;;;;22.85;7.70;;;;;;;15.68;67.05;100393.63;10271012;28;20068;-81
2022/10/28 18:08:24;;;;;;;27.00;7.75;;;;;;;15.64;67.27;100387.75;10272006;28;20055;-81
2022/10/28 18:13:32;;;;;;;22.50;7.65;;;;;;;15.58;67.19;100396.09;10270885;28;20555;-81
2022/10/28 18:18:33;;;;;;;30.73;7.60;;;;;;;15.55;67.38;100392.88;10286748;28;20074;-80
2022/10/28 18:23:43;;;;;;;27.00;7.53;;;;;;;15.44;67.63;100385.69;10269400;28;20057;-80
2022/10/28 18:28:45;;;;;;;28.35;8.82;;;;;;;15.39;67.71;100374.63;10271767;28;20421;-80
2022/10/28 18:33:47;;;;;;;25.45;9.25;;;;;;;15.25;68.23;100380.06;10271464;28;20055;-81
2022/10/28 18:38:50;;;;;;;22.05;8.05;;;;;;;15.09;68.64;100395.28;10270102;28;20073;-81
2022/10/28 18:43:59;;;;;;;25.15;8.10;;;;;;;14.95;68.87;100395.41;10271107;28;20058;-80
2022/10/28 18:49:01;;;;;;;23.08;8.15;;;;;;;14.94;68.96;100391.13;10277633;28;20061;-81
2022/10/28 18:54:03;;;;;;;19.90;8.30;;;;;;;14.96;68.60;100405.00;10279635;28;20472;-80
2022/10/28 18:59:05;;;;;;;29.02;11.05;;;;;;;14.86;68.85;100409.25;10276945;28;20061;-80
2022/10/28 19:04:07;;;;;;;24.65;9.00;;;;;;;14.83;69.31;100419.97;10277980;28;20065;-80
2022/10/28 19:09:09;;;;;;;22.30;8.02;;;;;;;14.87;69.21;100419.66;10277393;28;21007;-81
2022/10/28 19:14:11;;;;;;;25.95;8.63;;;;;;;14.90;69.07;100408.91;10278854;28;20060;-80
2022/10/28 19:19:12;;;;;;;27.98;8.95;;;;;;;14.88;68.97;100416.06;10279713;28;20883;-81
2022/10/28 19:24:14;;;;;;;30.50;8.35;;;;;;;14.69;69.05;100414.81;10278618;28;20046;-82
2022/10/28 19:29:16;;;;;;;29.77;9.60;;;;;;;14.53;69.39;100423.75;10278965;28;20065;-81
2022/10/28 19:34:18;;;;;;;29.05;8.70;;;;;;;14.56;69.57;100420.94;10278454;28;20579;-81
2022/10/28 19:39:20;;;;;;;23.42;8.55;;;;;;;14.65;68.78;100435.25;10278728;28;20058;-81
2022/10/28 19:44:21;;;;;;;24.42;9.95;;;;;;;14.61;69.03;100454.00;10277497;28;20125;-81
2022/10/28 19:49:23;;;;;;;30.10;10.85;;;;;;;14.53;69.12;100438.75;10271772;28;20055;-81
2022/10/28 19:54:30;;;;;;;25.92;9.73;;;;;;;14.49;68.66;100435.44;10276626;28;20066;-81
2022/10/28 19:59:32;;;;;;;25.40;9.10;;;;;;;14.43;68.99;100442.91;10275688;28;20166;-81
2022/10/28 20:04:33;;;;;;;31.13;8.77;;;;;;;14.43;69.20;100445.53;10277084;28;20063;-80
2022/10/28 20:09:35;;;;;;;32.15;9.77;;;;;;;14.34;69.10;100462.78;10276854;28;20421;-80
2022/10/28 20:14:37;;;;;;;24.17;9.18;;;;;;;14.30;69.32;100449.94;10278026;28;20117;-80
2022/10/28 20:19:38;;;;;;;31.92;11.80;;;;;;;14.24;69.63;100448.56;10277093;28;20073;-80
2022/10/28 20:24:40;;;;;;;26.90;13.00;;;;;;;14.28;69.90;100444.78;10275312;28;20050;-80
2022/10/28 20:29:42;;;;;;;30.00;12.65;;;;;;;14.28;69.36;100447.41;10276367;28;20057;-81
2022/10/28 20:34:43;;;;;;;25.17;12.05;;;;;;;14.22;69.23;100466.22;10276143;28;20065;-80
2022/10/28 20:39:45;;;;;;;30.50;13.45;;;;;;;14.25;69.31;100466.00;10274875;28;20471;-81
2022/10/28 20:44:48;;;;;;;30.17;14.10;;;;;;;14.25;69.37;100480.94;10275788;28;20105;-80
2022/10/28 20:49:52;;;;;;;30.75;12.35;;;;;;;14.21;69.66;100488.19;10274330;28;20060;-80
2022/10/28 20:54:54;;;;;;;22.92;13.85;;;;;;;14.20;69.36;100497.06;10273535;28;20057;-80
2022/10/28 20:59:56;;;;;;;28.45;11.65;;;;;;;14.06;69.32;100497.13;10273083;28;20054;-81
2022/10/28 21:04:57;;;;;;;32.38;12.43;;;;;;;14.01;69.32;100499.19;10272176;28;20061;-81
2022/10/28 21:09:59;;;;;;;29.92;11.43;;;;;;;13.95;69.33;100507.47;10288016;28;20059;-80
2022/10/28 21:15:01;;;;;;;37.65;12.30;;;;;;;13.91;69.40;100516.50;10271615;28;20508;-81
2022/10/28 21:20:04;;;;;;;28.65;11.13;;;;;;;13.82;69.64;100511.81;10272975;28;20046;-80
2022/10/28 21:25:06;;;;;;;28.15;10.18;;;;;;;13.64;70.16;100505.94;10271737;28;20508;-80
2022/10/28 21:30:08;;;;;;;24.20;11.88;;;;;;;13.60;69.87;100501.84;10272425;28;20050;-81
2022/10/28 21:35:10;;;;;;;32.20;12.15;;;;;;;13.62;69.54;100507.84;10269974;28;20054;-81
2022/10/28 21:40:12;;;;;;;23.20;10.82;;;;;;;13.60;69.77;100517.59;10272388;28;20054;-81
2022/10/28 21:45:14;;;;;;;26.73;12.43;;;;;;;13.56;69.72;100521.38;10271519;28;20053;-81
2022/10/28 21:50:17;;;;;;;40.00;14.68;;;;;;;13.45;70.05;100522.97;10272842;28;20424;-80
2022/10/28 21:55:18;;;;;;;33.22;14.52;;;;;;;13.40;69.88;100519.75;10271269;28;20049;-81
2022/10/28 22:00:34;;;;;;;32.17;13.95;;;;;;;13.37;70.57;100519.97;10272448;28;20055;-80
2022/10/28 22:05:36;;;;;;;25.88;13.00;;;;;;;13.41;70.62;100508.31;10271652;28;20054;-81
2022/10/28 22:10:37;;;;;;;28.48;12.10;;;;;;;13.35;70.46;100513.94;10273071;28;20061;-81
2022/10/28 22:15:39;;;;;;;31.98;14.43;;;;;;;13.13;70.38;100532.78;10272649;28;20089;-81
2022/10/28 22:20:41;;;;;;;33.22;15.10;;;;;;;13.11;70.73;100528.59;10276155;28;20050;-80
2022/10/28 22:25:43;;;;;;;23.98;12.68;;;;;;;13.07;70.88;100527.91;10280545;28;20047;-81
2022/10/28 22:30:44;;;;;;;29.52;13.10;;;;;;;13.11;71.23;100533.84;10278539;28;20429;-81
2022/10/28 22:35:58;;;;;;;32.90;16.48;;;;;;;13.11;70.70;100524.16;10279035;28;20424;-81
2022/10/28 22:41:11;;;;;;;29.65;14.20;;;;;;;13.14;70.71;100515.25;10279028;28;20058;-82
2022/10/28 22:46:13;;;;;;;24.40;11.60;;;;;;;13.21;70.79;100527.09;10278399;28;20473;-79
2022/10/28 22:51:15;;;;;;;28.48;13.55;;;;;;;13.21;70.38;100525.28;10278674;28;20054;-79
2022/10/28 22:56:23;;;;;;;29.23;13.80;;;;;;;13.20;70.60;100523.63;10278946;28;20853;-79
2022/10/28 23:01:26;;;;;;;34.97;18.13;;;;;;;13.17;70.49;100528.22;10274985;28;20077;-81
2022/10/28 23:06:29;;;;;;;33.20;15.57;;;;;;;13.10;70.55;100521.63;10275482;28;20055;-80
2022/10/28 23:11:31;;;;;;;25.13;11.65;;;;;;;13.10;70.82;100533.00;10276400;28;20121;-81
2022/10/28 23:16:33;;;;;;;35.03;15.48;;;;;;;13.09;70.31;100526.03;10277607;28;20185;-80
2022/10/28 23:21:35;;;;;;;32.53;13.00;;;;;;;13.05;70.41;100527.16;10278848;28;20055;-80